Time;durP1;ratioP1;P1;durP2;ratioP2;P2;SDS_P1;SDS_P2;PMS_P1;PMS_P2;Temp;Humidity;BMP_temperature;BMP_pressure;BME280_temperature;BME280_humidity;BME280_pressure;Samples;Min_cycle;Max_cycle;Signal;HPM_P1;HPM_P2
2022/04/05 00:01:52;;;;;;;7.38;1.83;;;7.10;99.90;;;;;;5120062;27;20035;-77
2022/04/05 00:04:18;;;;;;;6.60;1.52;;;7.20;99.90;;;;;;5111440;27;20071;-76
2022/04/05 00:06:43;;;;;;;13.27;1.70;;;7.20;99.90;;;;;;5094425;27;20089;-75
2022/04/05 00:09:09;;;;;;;10.70;1.50;;;7.10;99.90;;;;;;5127514;27;20088;-76
2022/04/05 00:11:35;;;;;;;11.65;1.90;;;7.10;99.90;;;;;;5118618;27;20077;-76
2022/04/05 00:14:00;;;;;;;9.00;1.40;;;7.10;99.90;;;;;;5115987;27;20126;-75
2022/04/05 00:16:26;;;;;;;10.57;1.73;;;7.20;99.90;;;;;;5130679;27;20042;-76
2022/04/05 00:18:52;;;;;;;10.23;1.88;;;7.10;99.90;;;;;;5130023;27;20043;-75
2022/04/05 00:21:17;;;;;;;7.22;1.73;;;7.10;99.90;;;;;;5126156;27;20046;-76
2022/04/05 00:23:44;;;;;;;6.35;1.10;;;7.20;99.90;;;;;;5130140;27;20039;-76
2022/04/05 00:26:09;;;;;;;6.97;1.30;;;7.10;99.90;;;;;;5113130;27;20138;-76
2022/04/05 00:28:35;;;;;;;8.13;1.42;;;7.00;99.90;;;;;;5093565;27;20122;-77
2022/04/05 00:31:01;;;;;;;6.15;1.48;;;7.20;99.90;;;;;;5125872;27;20038;-76
2022/04/05 00:33:26;;;;;;;12.93;1.98;;;7.20;99.90;;;;;;5116795;28;20435;-75
2022/04/05 00:35:52;;;;;;;9.13;1.88;;;7.10;99.90;;;;;;5119769;28;20134;-76
2022/04/05 00:38:18;;;;;;;11.68;1.60;;;7.10;99.90;;;;;;5102178;28;20095;-77
2022/04/05 00:40:45;;;;;;;8.27;1.70;;;7.10;99.90;;;;;;5110042;28;20421;-76
2022/04/05 00:43:11;;;;;;;10.25;1.70;;;7.00;99.90;;;;;;5122111;28;20043;-76
2022/04/05 00:45:36;;;;;;;8.60;1.25;;;7.10;99.90;;;;;;5113425;28;20027;-76
2022/04/05 00:48:04;;;;;;;7.80;1.35;;;7.00;99.90;;;;;;5095791;28;20035;-77
2022/04/05 00:50:34;;;;;;;11.35;2.13;;;7.10;99.90;;;;;;5113240;28;20659;-76
2022/04/05 00:53:02;;;;;;;8.48;1.60;;;7.10;99.90;;;;;;5123507;28;20039;-76
2022/04/05 00:55:28;;;;;;;9.02;1.40;;;7.10;99.90;;;;;;5094651;28;20044;-77
2022/04/05 00:57:57;;;;;;;8.38;1.98;;;6.90;99.90;;;;;;5112473;28;20039;-77
2022/04/05 01:00:23;;;;;;;11.63;1.48;;;7.00;99.90;;;;;;5102024;28;20050;-77
2022/04/05 01:02:52;;;;;;;10.95;1.80;;;7.00;99.90;;;;;;5099164;27;20039;-77
2022/04/05 01:05:18;;;;;;;7.93;1.50;;;7.10;99.90;;;;;;5133689;27;20039;-77
2022/04/05 01:07:46;;;;;;;12.60;1.73;;;6.90;99.90;;;;;;5123842;27;20042;-77
2022/04/05 01:10:12;;;;;;;10.93;1.60;;;6.90;99.90;;;;;;5110751;27;20068;-77
2022/04/05 01:12:38;;;;;;;10.52;1.73;;;6.90;99.90;;;;;;5130168;27;20125;-77
2022/04/05 01:15:04;;;;;;;7.70;1.58;;;7.00;99.90;;;;;;5118503;27;20035;-77
2022/04/05 01:17:31;;;;;;;11.75;2.10;;;7.00;99.90;;;;;;5120401;27;20118;-76
2022/04/05 01:19:57;;;;;;;13.23;1.90;;;7.00;99.90;;;;;;5115128;27;20043;-76
2022/04/05 01:22:22;;;;;;;8.80;1.60;;;6.90;99.90;;;;;;5116869;27;20035;-77
2022/04/05 01:24:48;;;;;;;10.30;1.83;;;6.90;99.90;;;;;;5106748;27;20508;-77
2022/04/05 01:27:18;;;;;;;10.00;1.55;;;6.90;99.90;;;;;;5135972;27;20466;-76
2022/04/05 01:29:45;;;;;;;9.35;2.25;;;7.00;99.90;;;;;;5083360;27;20439;-77
2022/04/05 01:32:11;;;;;;;8.05;1.60;;;6.90;99.90;;;;;;5118327;27;20046;-77
2022/04/05 01:34:38;;;;;;;7.63;1.45;;;6.90;99.90;;;;;;5116541;27;20397;-77
2022/04/05 01:37:09;;;;;;;6.82;1.42;;;7.00;99.90;;;;;;5137330;27;20070;-76
2022/04/05 01:39:38;;;;;;;7.20;1.23;;;7.00;99.90;;;;;;5124993;27;20478;-76
2022/04/05 01:42:09;;;;;;;10.07;2.10;;;7.00;99.90;;;;;;5116853;27;20110;-76
2022/04/05 01:44:37;;;;;;;6.45;1.55;;;7.00;99.90;;;;;;5116704;27;20062;-76
2022/04/05 01:47:16;;;;;;;4.93;1.52;;;7.00;99.90;;;;;;5117473;27;20470;-76
2022/04/05 01:49:44;;;;;;;12.93;2.20;;;7.00;99.90;;;;;;5136251;27;20046;-76
2022/04/05 01:52:10;;;;;;;10.07;1.90;;;7.00;99.90;;;;;;5134657;27;20054;-76
2022/04/05 01:54:37;;;;;;;10.75;1.80;;;6.80;99.90;;;;;;5126501;27;20050;-76
2022/04/05 01:57:03;;;;;;;10.27;1.52;;;6.70;99.90;;;;;;5133973;27;20058;-75
2022/04/05 01:59:31;;;;;;;9.82;1.48;;;6.70;99.90;;;;;;5122787;27;20483;-76
2022/04/05 02:01:57;;;;;;;13.05;1.90;;;6.60;99.90;;;;;;5108920;27;20499;-76
2022/04/05 02:04:23;;;;;;;9.90;1.73;;;6.60;99.90;;;;;;5120966;27;20075;-76
2022/04/05 02:06:49;;;;;;;8.93;1.92;;;6.60;99.90;;;;;;5101021;27;20071;-76
2022/04/05 02:09:16;;;;;;;10.90;1.83;;;6.80;99.90;;;;;;5128432;27;20051;-77
2022/04/05 02:11:44;;;;;;;10.40;1.80;;;6.80;99.90;;;;;;5115450;27;20034;-76
2022/04/05 02:14:11;;;;;;;10.82;1.65;;;6.70;99.90;;;;;;5125008;27;20076;-76
2022/04/05 02:16:37;;;;;;;11.85;1.85;;;6.70;99.90;;;;;;5113531;27;20445;-76
2022/04/05 02:19:03;;;;;;;7.18;1.58;;;6.70;99.90;;;;;;5133795;27;20043;-75
2022/04/05 02:21:29;;;;;;;12.15;2.35;;;6.70;99.90;;;;;;5117245;27;20081;-76
2022/04/05 02:23:54;;;;;;;7.50;1.50;;;6.70;99.90;;;;;;5119860;27;20040;-76
2022/04/05 02:26:20;;;;;;;12.00;2.03;;;6.80;99.90;;;;;;5129134;27;20455;-76
2022/04/05 02:28:47;;;;;;;7.93;1.40;;;6.70;99.90;;;;;;5131583;27;20039;-76
2022/04/05 02:31:13;;;;;;;7.65;1.30;;;6.70;99.90;;;;;;5109022;27;20045;-76
2022/04/05 02:33:39;;;;;;;11.73;1.63;;;6.70;99.90;;;;;;5133514;27;20042;-77
2022/04/05 02:36:05;;;;;;;13.23;2.40;;;6.80;99.90;;;;;;5124753;27;20045;-76
2022/04/05 02:38:31;;;;;;;23.25;3.15;;;6.80;99.90;;;;;;5131764;27;20130;-76
2022/04/05 02:40:57;;;;;;;14.52;2.08;;;6.80;99.90;;;;;;5107589;27;20573;-76
2022/04/05 02:43:24;;;;;;;12.02;2.42;;;6.60;99.90;;;;;;5098693;27;20115;-77
2022/04/05 02:45:49;;;;;;;12.43;2.05;;;6.70;99.90;;;;;;5126211;27;20034;-76
2022/04/05 02:48:16;;;;;;;20.45;2.55;;;6.80;99.90;;;;;;5118353;27;20474;-76
2022/04/05 02:50:42;;;;;;;13.05;2.20;;;6.70;99.90;;;;;;5111059;27;20430;-77
2022/04/05 02:53:07;;;;;;;13.00;2.10;;;6.60;99.90;;;;;;5123499;27;20081;-76
2022/04/05 02:55:33;;;;;;;15.50;2.50;;;6.70;99.90;;;;;;5115552;27;20043;-76
2022/04/05 02:57:59;;;;;;;14.45;2.45;;;6.60;99.90;;;;;;5098600;27;20043;-76
2022/04/05 03:00:24;;;;;;;16.70;2.20;;;6.60;99.90;;;;;;5098359;27;20549;-76
2022/04/05 03:02:50;;;;;;;15.57;2.58;;;6.60;99.90;;;;;;5114936;27;20051;-76
2022/04/05 03:05:19;;;;;;;19.23;2.78;;;6.70;99.90;;;;;;5081344;27;20091;-76
2022/04/05 03:07:44;;;;;;;13.15;1.95;;;6.70;99.90;;;;;;5081637;27;20036;-77
2022/04/05 03:10:11;;;;;;;14.50;2.47;;;6.70;99.90;;;;;;5114907;27;20068;-76
2022/04/05 03:12:38;;;;;;;14.20;2.92;;;6.60;99.90;;;;;;5115020;27;20510;-76
2022/04/05 03:15:05;;;;;;;;;;;6.70;99.90;;;;;;5115474;27;20039;-76
2022/04/05 03:17:32;;;;;;;;;;;6.60;99.90;;;;;;5115414;27;19926;-76
2022/04/05 03:20:03;;;;;;;13.52;2.25;;;6.60;99.90;;;;;;5127007;27;20378;-76
2022/04/05 03:22:29;;;;;;;14.60;2.00;;;6.60;99.90;;;;;;5122986;27;20047;-77
2022/04/05 03:24:55;;;;;;;9.88;1.83;;;6.60;99.90;;;;;;5116283;27;20161;-76
2022/04/05 03:27:21;;;;;;;13.82;2.00;;;6.60;99.90;;;;;;5133354;27;20122;-75
2022/04/05 03:29:46;;;;;;;8.63;1.85;;;6.60;99.90;;;;;;5124764;27;20560;-76
2022/04/05 03:32:12;;;;;;;6.75;1.60;;;6.50;99.90;;;;;;5117957;27;20039;-75
2022/04/05 03:34:38;;;;;;;10.48;1.63;;;6.50;99.90;;;;;;5095108;27;20500;-76
2022/04/05 03:37:04;;;;;;;;;;;6.50;99.90;;;;;;5133651;27;20042;-76
2022/04/05 03:39:30;;;;;;;11.20;1.98;;;6.50;99.90;;;;;;5098280;27;20335;-76
2022/04/05 03:41:57;;;;;;;11.13;1.95;;;6.60;99.90;;;;;;5119141;27;20034;-75
2022/04/05 03:44:24;;;;;;;9.95;1.67;;;6.50;99.90;;;;;;5126248;27;20043;-75
2022/04/05 03:46:51;;;;;;;11.63;2.28;;;6.50;99.90;;;;;;5134098;27;20095;-75
2022/04/05 03:49:17;;;;;;;11.13;1.92;;;6.60;99.90;;;;;;5129408;27;20070;-76
2022/04/05 03:51:42;;;;;;;11.13;1.88;;;6.60;99.90;;;;;;5097580;27;20071;-75
2022/04/05 03:54:08;;;;;;;7.40;1.40;;;6.50;99.90;;;;;;5118123;27;20147;-75
2022/04/05 03:56:34;;;;;;;16.02;2.60;;;6.60;99.90;;;;;;5110787;27;20038;-77
2022/04/05 03:59:00;;;;;;;17.50;2.17;;;6.50;99.90;;;;;;5109860;27;20095;-77
2022/04/05 04:01:26;;;;;;;15.13;2.30;;;6.60;99.90;;;;;;5090505;27;20076;-76
2022/04/05 04:03:51;;;;;;;8.15;1.73;;;6.60;99.90;;;;;;5132014;27;20074;-76
2022/04/05 04:06:17;;;;;;;10.95;1.90;;;6.50;99.90;;;;;;5116176;27;20034;-75
2022/04/05 04:08:43;;;;;;;13.52;2.20;;;6.50;99.90;;;;;;5144994;27;20095;-75
2022/04/05 04:11:08;;;;;;;7.45;1.55;;;6.60;99.90;;;;;;5134528;27;20039;-75
2022/04/05 04:13:34;;;;;;;17.25;2.53;;;6.40;99.90;;;;;;5119695;27;20149;-76
2022/04/05 04:16:00;;;;;;;11.63;2.10;;;6.50;99.90;;;;;;5128406;27;20050;-76
2022/04/05 04:18:26;;;;;;;;;;;6.50;99.90;;;;;;5117060;27;20066;-78
2022/04/05 04:20:52;;;;;;;13.52;2.30;;;6.50;99.90;;;;;;5125100;27;20381;-77
2022/04/05 04:23:18;;;;;;;16.27;2.15;;;6.50;99.90;;;;;;5118373;27;20084;-76
2022/04/05 04:25:44;;;;;;;16.23;2.67;;;6.50;99.90;;;;;;5117472;27;20493;-77
2022/04/05 04:28:10;;;;;;;9.85;1.50;;;6.40;99.90;;;;;;5132383;27;20039;-77
2022/04/05 04:30:37;;;;;;;;;;;6.40;99.90;;;;;;5112634;27;20034;-77
2022/04/05 04:33:03;;;;;;;8.73;1.67;;;6.40;99.90;;;;;;5128727;27;19998;-77
2022/04/05 04:35:30;;;;;;;8.70;1.30;;;6.50;99.90;;;;;;5097660;27;20043;-77
2022/04/05 04:37:56;;;;;;;12.48;2.00;;;6.50;99.90;;;;;;5118117;27;20051;-76
2022/04/05 04:40:23;;;;;;;9.27;1.60;;;6.30;99.90;;;;;;5100893;27;20497;-77
2022/04/05 04:42:49;;;;;;;10.82;1.42;;;6.40;99.90;;;;;;5107762;28;20101;-78
2022/04/05 04:45:14;;;;;;;7.88;1.42;;;6.40;99.90;;;;;;5096320;28;20039;-77
2022/04/05 04:47:40;;;;;;;8.55;1.25;;;6.30;99.90;;;;;;5122851;27;20122;-77
2022/04/05 04:50:07;;;;;;;7.25;1.40;;;6.40;99.90;;;;;;5131553;27;20034;-78
2022/04/05 04:52:33;;;;;;;7.57;1.65;;;6.30;99.90;;;;;;5130911;27;20046;-77
2022/04/05 04:54:59;;;;;;;7.65;1.50;;;6.40;99.90;;;;;;5130700;27;20033;-78
2022/04/05 04:57:25;;;;;;;10.95;1.55;;;6.40;99.90;;;;;;5129807;27;20481;-78
2022/04/05 04:59:52;;;;;;;12.30;1.70;;;6.40;99.90;;;;;;5098700;28;20039;-77
2022/04/05 05:02:18;;;;;;;13.98;1.73;;;6.30;99.90;;;;;;5097202;28;20148;-77
2022/04/05 05:04:44;;;;;;;7.10;1.33;;;6.40;99.90;;;;;;5110816;27;20393;-77
2022/04/05 05:07:10;;;;;;;8.88;1.70;;;6.30;99.90;;;;;;5132878;27;20035;-77
2022/04/05 05:09:35;;;;;;;8.80;1.48;;;6.30;99.90;;;;;;5102384;27;20506;-77
2022/04/05 05:12:01;;;;;;;8.68;1.67;;;6.40;99.90;;;;;;5133623;27;20587;-77
2022/04/05 05:14:27;;;;;;;12.88;1.80;;;6.40;99.90;;;;;;5086663;27;20464;-77
2022/04/05 05:16:54;;;;;;;8.13;1.67;;;6.40;99.90;;;;;;5128672;27;20039;-77
2022/04/05 05:19:21;;;;;;;7.03;1.35;;;6.40;99.90;;;;;;5113108;28;20487;-77
2022/04/05 05:21:46;;;;;;;8.68;1.50;;;6.40;99.90;;;;;;5113389;28;20046;-79
2022/04/05 05:24:12;;;;;;;11.57;1.65;;;6.40;99.90;;;;;;5113101;28;20039;-77
2022/04/05 05:26:38;;;;;;;8.68;1.38;;;6.40;99.90;;;;;;5087872;28;20492;-76
2022/04/05 05:29:04;;;;;;;11.52;1.77;;;6.40;99.90;;;;;;5102692;28;20036;-77
2022/04/05 05:31:29;;;;;;;5.53;1.40;;;6.40;99.90;;;;;;5105591;28;20710;-73
2022/04/05 05:33:55;;;;;;;8.85;1.42;;;6.40;99.90;;;;;;5072782;28;20574;-79
2022/04/05 05:36:21;;;;;;;5.75;1.30;;;6.40;99.90;;;;;;5090549;28;20047;-77
2022/04/05 05:38:46;;;;;;;4.50;1.63;;;6.50;99.90;;;;;;5088437;28;20504;-77
2022/04/05 05:41:12;;;;;;;10.77;2.08;;;6.60;99.90;;;;;;5086676;28;20426;-78
2022/04/05 05:43:38;;;;;;;6.90;1.83;;;6.60;99.90;;;;;;5091561;28;20503;-78
2022/04/05 05:46:06;;;;;;;10.60;1.75;;;6.50;99.90;;;;;;5101844;28;20040;-77
2022/04/05 05:48:33;;;;;;;11.38;1.70;;;6.60;99.90;;;;;;5080949;28;20040;-81
2022/04/05 05:50:59;;;;;;;12.95;2.53;;;6.60;99.90;;;;;;5090260;28;20047;-78
2022/04/05 05:53:25;;;;;;;9.13;1.60;;;6.70;99.90;;;;;;5105331;28;20040;-79
2022/04/05 05:55:50;;;;;;;10.82;1.80;;;6.70;99.90;;;;;;5111787;28;20676;-75
2022/04/05 05:58:16;;;;;;;11.30;1.90;;;6.60;99.90;;;;;;5110813;28;20122;-75
2022/04/05 06:00:42;;;;;;;11.30;2.17;;;6.60;99.90;;;;;;5092130;28;20066;-76
2022/04/05 06:03:10;;;;;;;8.48;2.08;;;6.70;99.90;;;;;;5093063;28;20051;-75
2022/04/05 06:05:36;;;;;;;11.02;1.80;;;6.70;99.90;;;;;;5111056;28;20399;-72
2022/04/05 06:08:04;;;;;;;7.15;1.70;;;6.70;99.90;;;;;;5111442;28;20474;-72
2022/04/05 06:10:30;;;;;;;13.45;2.78;;;6.80;99.90;;;;;;5111757;28;20112;-72
2022/04/05 06:12:57;;;;;;;13.65;3.00;;;6.80;99.90;;;;;;5092795;28;20660;-72
2022/04/05 06:15:25;;;;;;;9.38;1.73;;;6.80;99.90;;;;;;5109005;28;20599;-77
2022/04/05 06:17:51;;;;;;;6.25;1.77;;;6.80;99.90;;;;;;5111631;28;20375;-73
2022/04/05 06:20:18;;;;;;;;;;;6.80;99.90;;;;;;5112021;28;20031;-73
2022/04/05 06:22:45;;;;;;;11.43;2.08;;;6.90;99.90;;;;;;5106811;28;20386;-72
2022/04/05 06:25:12;;;;;;;7.55;1.60;;;6.80;99.90;;;;;;5109112;27;20066;-72
2022/04/05 06:27:38;;;;;;;7.43;1.65;;;6.90;99.90;;;;;;5111649;28;20070;-72
2022/04/05 06:30:07;;;;;;;7.03;1.42;;;6.90;99.90;;;;;;5093977;28;20355;-72
2022/04/05 06:32:33;;;;;;;6.53;1.63;;;7.00;99.90;;;;;;5111667;28;20062;-73
2022/04/05 06:34:59;;;;;;;9.02;1.83;;;7.00;99.90;;;;;;5094732;28;20486;-74
2022/04/05 06:37:24;;;;;;;12.15;1.70;;;6.90;99.90;;;;;;5128521;27;20040;-72
2022/04/05 06:39:50;;;;;;;16.50;2.08;;;7.00;99.90;;;;;;5111762;28;20032;-72
2022/04/05 06:42:16;;;;;;;12.30;1.80;;;7.00;99.90;;;;;;5096356;27;20744;-72
2022/04/05 06:44:41;;;;;;;10.38;1.63;;;7.00;99.90;;;;;;5115300;27;20047;-73
2022/04/05 06:47:10;;;;;;;10.18;2.00;;;7.10;99.90;;;;;;5111042;28;20104;-73
2022/04/05 06:49:36;;;;;;;7.50;1.92;;;7.10;99.90;;;;;;5078774;28;20392;-73
2022/04/05 06:52:01;;;;;;;13.13;1.90;;;7.30;99.90;;;;;;5111811;28;20047;-72
2022/04/05 06:54:27;;;;;;;8.93;1.42;;;7.20;99.90;;;;;;5123538;27;20043;-73
2022/04/05 06:56:53;;;;;;;9.35;1.95;;;7.30;99.90;;;;;;5116747;27;20048;-73
2022/04/05 06:59:18;;;;;;;8.55;1.55;;;7.30;99.90;;;;;;5094263;28;20051;-72
2022/04/05 07:01:44;;;;;;;7.88;1.98;;;7.40;99.90;;;;;;5111721;28;20473;-73
2022/04/05 07:04:10;;;;;;;9.02;2.20;;;7.50;99.90;;;;;;5077635;28;20039;-73
2022/04/05 07:06:36;;;;;;;8.48;1.65;;;7.50;99.90;;;;;;5111647;28;20043;-73
2022/04/05 07:09:01;;;;;;;11.43;2.00;;;7.50;99.90;;;;;;5112763;28;20044;-73
2022/04/05 07:11:27;;;;;;;9.15;1.85;;;7.60;99.90;;;;;;5128483;27;20049;-73
2022/04/05 07:13:53;;;;;;;7.30;2.20;;;7.60;99.90;;;;;;5112096;27;20042;-73
2022/04/05 07:16:19;;;;;;;8.75;1.80;;;7.70;99.90;;;;;;5122071;27;20074;-73
2022/04/05 07:18:45;;;;;;;6.88;1.77;;;7.70;99.90;;;;;;5118988;27;20056;-73
2022/04/05 07:21:11;;;;;;;13.02;2.25;;;7.70;99.90;;;;;;5114332;27;20051;-73
2022/04/05 07:23:37;;;;;;;6.40;1.58;;;7.70;99.90;;;;;;5127998;27;20076;-73
2022/04/05 07:26:03;;;;;;;5.65;1.70;;;7.70;99.90;;;;;;5113343;27;20063;-73
2022/04/05 07:28:29;;;;;;;;;;;7.70;99.90;;;;;;5128989;27;20058;-73
2022/04/05 07:30:55;;;;;;;7.97;2.00;;;7.70;99.90;;;;;;5115248;27;20389;-73
2022/04/05 07:33:20;;;;;;;8.13;2.42;;;7.70;99.90;;;;;;5111309;28;20126;-73
2022/04/05 07:35:46;;;;;;;11.70;2.42;;;7.70;99.90;;;;;;5101756;27;20035;-73
2022/04/05 07:38:12;;;;;;;10.73;2.20;;;7.70;99.90;;;;;;5110271;27;20129;-73
2022/04/05 07:40:48;;;;;;;5.75;1.80;;;7.70;99.90;;;;;;5127519;27;20047;-73
2022/04/05 07:43:19;;;;;;;6.95;2.15;;;7.70;99.90;;;;;;5130098;27;20405;-73
2022/04/05 07:45:48;;;;;;;10.00;2.00;;;7.60;99.90;;;;;;5128717;27;20049;-72
2022/04/05 07:48:15;;;;;;;6.40;1.80;;;7.70;99.90;;;;;;5121098;27;20051;-73
2022/04/05 07:50:41;;;;;;;6.43;1.90;;;7.60;99.90;;;;;;5110688;28;20047;-73
2022/04/05 07:53:07;;;;;;;12.30;2.22;;;7.60;99.90;;;;;;5110998;27;20035;-72
2022/04/05 07:55:32;;;;;;;10.77;2.67;;;7.60;99.90;;;;;;5101239;28;20043;-72
2022/04/05 07:57:58;;;;;;;8.77;2.38;;;7.60;99.90;;;;;;5111223;27;20097;-73
2022/04/05 08:00:26;;;;;;;6.22;1.80;;;7.60;99.90;;;;;;5129919;27;20454;-73
2022/04/05 08:02:51;;;;;;;8.68;1.95;;;7.50;99.90;;;;;;5129553;27;20058;-73
2022/04/05 08:05:17;;;;;;;10.20;2.25;;;7.50;99.90;;;;;;5130189;27;20058;-75
2022/04/05 08:07:43;;;;;;;9.05;1.80;;;7.60;99.90;;;;;;5106333;27;20035;-72
2022/04/05 08:10:10;;;;;;;6.50;1.65;;;7.60;99.90;;;;;;5119688;27;20055;-73
2022/04/05 08:12:44;;;;;;;10.82;2.30;;;7.60;99.90;;;;;;5109267;28;20122;-72
2022/04/05 08:15:12;;;;;;;10.45;2.20;;;7.70;99.90;;;;;;5091787;28;20093;-73
2022/04/05 08:17:37;;;;;;;7.45;1.80;;;7.70;99.90;;;;;;5125787;27;20042;-73
2022/04/05 08:20:05;;;;;;;11.43;2.20;;;7.70;99.90;;;;;;5129140;27;20414;-73
2022/04/05 08:22:31;;;;;;;7.75;1.88;;;7.70;99.90;;;;;;5098962;28;20162;-74
2022/04/05 08:24:56;;;;;;;9.30;1.70;;;7.80;99.90;;;;;;5089315;27;20123;-73
2022/04/05 08:27:22;;;;;;;7.45;1.85;;;8.00;99.90;;;;;;5131781;27;20192;-73
2022/04/05 08:29:48;;;;;;;5.93;1.77;;;7.90;99.90;;;;;;5115141;27;20375;-73
2022/04/05 08:32:14;;;;;;;7.82;1.67;;;8.00;99.90;;;;;;5132033;27;20038;-75
2022/04/05 08:34:41;;;;;;;5.55;1.80;;;8.00;99.90;;;;;;5132588;27;20046;-76
2022/04/05 08:37:08;;;;;;;6.47;1.92;;;8.00;99.90;;;;;;5132596;27;20049;-76
2022/04/05 08:39:38;;;;;;;7.43;2.00;;;8.00;99.90;;;;;;5133111;27;20426;-75
2022/04/05 08:42:05;;;;;;;5.63;1.77;;;8.00;99.90;;;;;;5131607;27;20031;-75
2022/04/05 08:44:31;;;;;;;5.45;1.60;;;8.00;99.90;;;;;;5110776;27;20074;-75
2022/04/05 08:46:59;;;;;;;5.13;1.75;;;8.00;99.90;;;;;;5132773;27;20043;-75
2022/04/05 08:49:27;;;;;;;7.25;1.70;;;8.10;99.90;;;;;;5113371;27;20142;-75
2022/04/05 08:51:52;;;;;;;8.57;1.80;;;8.00;99.90;;;;;;5125050;28;20118;-75
2022/04/05 08:54:18;;;;;;;8.18;2.08;;;7.90;99.90;;;;;;5104186;28;20121;-76
2022/04/05 08:56:44;;;;;;;5.75;1.33;;;7.90;99.90;;;;;;5121232;27;20096;-75
2022/04/05 08:59:10;;;;;;;6.30;1.80;;;8.00;99.90;;;;;;5130300;27;20126;-75
2022/04/05 09:01:36;;;;;;;6.35;1.77;;;8.20;99.90;;;;;;5132436;27;20046;-75
2022/04/05 09:04:03;;;;;;;4.03;1.38;;;8.30;99.90;;;;;;5124354;28;20131;-76
2022/04/05 09:06:31;;;;;;;5.90;2.13;;;8.40;99.90;;;;;;5113239;28;20047;-75
2022/04/05 09:09:28;;;;;;;4.03;1.42;;;8.50;99.90;;;;;;5121415;27;20060;-75
2022/04/05 09:11:54;;;;;;;5.05;1.90;;;8.70;99.90;;;;;;5091717;27;20055;-74
2022/04/05 09:14:24;;;;;;;4.65;1.33;;;8.70;99.90;;;;;;5123861;27;20784;-74
2022/04/05 09:17:05;;;;;;;4.32;1.55;;;8.70;99.90;;;;;;5131281;27;20043;-74
2022/04/05 09:19:42;;;;;;;3.47;1.10;;;8.80;99.90;;;;;;5130463;27;20058;-75
2022/04/05 09:22:08;;;;;;;;;;;8.90;99.90;;;;;;5123008;27;20119;-76
2022/04/05 09:24:45;;;;;;;4.50;1.42;;;8.90;99.90;;;;;;5124992;27;20437;-77
2022/04/05 09:27:11;;;;;;;3.30;1.30;;;8.90;99.90;;;;;;5122114;27;20042;-76
2022/04/05 09:29:45;;;;;;;4.22;1.30;;;8.80;99.90;;;;;;5124475;27;20057;-76
2022/04/05 09:32:31;;;;;;;3.28;1.00;;;8.70;99.90;;;;;;5107060;27;20572;-76
2022/04/05 09:34:57;;;;;;;6.75;2.03;;;8.60;99.90;;;;;;5104106;27;20528;-76
2022/04/05 09:37:28;;;;;;;6.78;1.90;;;8.60;99.90;;;;;;5128838;27;20054;-76
2022/04/05 09:40:13;;;;;;;4.30;1.45;;;8.60;99.90;;;;;;5124824;27;20086;-75
2022/04/05 09:42:59;;;;;;;4.78;1.40;;;8.50;99.90;;;;;;5126202;27;20034;-77
2022/04/05 09:45:57;;;;;;;6.72;1.63;;;8.40;99.90;;;;;;5125915;27;20042;-76
2022/04/05 09:48:28;;;;;;;3.65;1.30;;;8.50;99.90;;;;;;5131858;27;20035;-76
2022/04/05 09:51:09;;;;;;;5.93;1.38;;;8.40;99.90;;;;;;5127163;27;20087;-76
2022/04/05 09:53:42;;;;;;;5.93;1.60;;;8.30;99.90;;;;;;5128079;27;20035;-77
2022/04/05 09:56:09;;;;;;;4.15;1.60;;;8.20;99.90;;;;;;5147736;27;20042;-77
2022/04/05 09:58:42;;;;;;;2.70;1.17;;;8.20;99.90;;;;;;5126692;27;20054;-76
2022/04/05 10:01:08;;;;;;;6.30;2.13;;;8.30;99.90;;;;;;5124027;27;20050;-76
2022/04/05 10:03:57;;;;;;;5.22;1.45;;;8.30;99.90;;;;;;5123346;27;20176;-77
2022/04/05 10:06:23;;;;;;;5.68;1.50;;;8.20;99.90;;;;;;5111445;27;20481;-76
2022/04/05 10:08:48;;;;;;;2.88;1.35;;;8.40;99.90;;;;;;5125619;27;20528;-77
2022/04/05 10:11:14;;;;;;;4.88;1.50;;;8.50;99.90;;;;;;5143933;27;20049;-77
2022/04/05 10:13:41;;;;;;;4.10;1.40;;;8.50;99.90;;;;;;5126749;27;20070;-77
2022/04/05 10:16:08;;;;;;;2.92;1.30;;;8.50;99.90;;;;;;5126324;27;20035;-77
2022/04/05 10:18:35;;;;;;;2.60;1.20;;;8.30;99.90;;;;;;5126869;27;20104;-77
2022/04/05 10:21:03;;;;;;;4.03;1.50;;;8.30;99.90;;;;;;5103609;27;20107;-77
2022/04/05 10:23:30;;;;;;;3.10;1.33;;;8.20;99.90;;;;;;5126113;27;20054;-77
2022/04/05 10:25:57;;;;;;;2.55;1.25;;;8.20;99.90;;;;;;5124920;27;20044;-77
2022/04/05 10:28:27;;;;;;;2.55;1.15;;;8.20;99.90;;;;;;5127772;27;20242;-77
2022/04/05 10:30:59;;;;;;;5.85;1.30;;;8.30;99.90;;;;;;5112211;27;20049;-77
2022/04/05 10:33:28;;;;;;;3.42;1.33;;;8.30;99.90;;;;;;5127525;27;20042;-77
2022/04/05 10:35:58;;;;;;;5.00;1.10;;;8.30;99.90;;;;;;5122695;27;20058;-77
2022/04/05 10:38:24;;;;;;;2.22;0.98;;;8.30;99.90;;;;;;5125786;27;20051;-77
2022/04/05 10:41:17;;;;;;;2.53;1.00;;;8.30;99.90;;;;;;5130749;27;20447;-76
2022/04/05 10:43:45;;;;;;;2.88;1.05;;;8.50;99.90;;;;;;5129492;27;20039;-73
2022/04/05 10:46:11;;;;;;;1.50;0.88;;;8.60;99.90;;;;;;5111082;27;20046;-73
2022/04/05 10:48:52;;;;;;;1.92;1.02;;;8.60;99.90;;;;;;5118766;27;20089;-73
2022/04/05 10:51:30;;;;;;;2.38;0.95;;;8.60;99.90;;;;;;5128387;27;20050;-73
2022/04/05 10:54:18;;;;;;;2.70;1.10;;;8.80;99.90;;;;;;5125226;27;20034;-73
2022/04/05 10:57:32;;;;;;;1.52;0.90;;;8.70;99.90;;;;;;5118923;27;20047;-72
2022/04/05 11:00:04;;;;;;;2.20;1.00;;;9.00;99.90;;;;;;5134945;27;20058;-72
2022/04/05 11:02:33;;;;;;;1.35;1.00;;;9.00;99.90;;;;;;5132006;27;20055;-72
2022/04/05 11:05:03;;;;;;;1.85;1.10;;;9.00;99.90;;;;;;5122675;27;20039;-73
2022/04/05 11:07:52;;;;;;;1.70;0.75;;;9.00;99.90;;;;;;5129052;27;20050;-73
2022/04/05 11:10:25;;;;;;;1.85;0.90;;;9.00;99.90;;;;;;5104646;27;20146;-73
2022/04/05 11:13:06;;;;;;;0.93;0.75;;;9.00;99.90;;;;;;5128147;27;20182;-73
2022/04/05 11:15:42;;;;;;;1.33;0.80;;;9.00;99.90;;;;;;5128554;27;20054;-76
2022/04/05 11:18:13;;;;;;;1.40;0.68;;;9.20;99.90;;;;;;5128063;27;20063;-76
2022/04/05 11:20:41;;;;;;;1.70;0.73;;;9.40;99.90;;;;;;5122453;27;20043;-76
2022/04/05 11:23:08;;;;;;;1.40;0.70;;;9.50;99.90;;;;;;5130007;27;20163;-76
2022/04/05 11:25:35;;;;;;;0.63;0.60;;;9.60;99.90;;;;;;5125078;27;20051;-76
2022/04/05 11:28:16;;;;;;;1.05;0.93;;;9.50;99.90;;;;;;5124050;27;20504;-76
2022/04/05 11:30:46;;;;;;;1.67;0.70;;;9.60;99.90;;;;;;5104446;27;20042;-76
2022/04/05 11:33:30;;;;;;;1.35;0.80;;;9.50;99.90;;;;;;5127065;27;20047;-76
2022/04/05 11:36:08;;;;;;;1.52;1.00;;;9.40;99.90;;;;;;5129304;27;20043;-76
2022/04/05 11:38:38;;;;;;;2.70;1.00;;;9.50;99.90;;;;;;5116135;27;20493;-75
2022/04/05 11:41:08;;;;;;;1.58;0.75;;;9.50;99.90;;;;;;5122276;27;20081;-75
2022/04/05 11:43:42;;;;;;;1.27;0.90;;;9.60;99.90;;;;;;5117592;27;20096;-76
2022/04/05 11:46:11;;;;;;;2.35;0.98;;;9.60;99.90;;;;;;5103368;27;20035;-76
2022/04/05 11:48:45;;;;;;;1.10;1.00;;;9.60;99.90;;;;;;5133687;27;20545;-76
2022/04/05 11:51:14;;;;;;;1.30;0.98;;;9.70;99.90;;;;;;5119418;27;20039;-76
2022/04/05 11:53:41;;;;;;;1.67;1.15;;;9.80;99.90;;;;;;5128840;27;20038;-76
2022/04/05 11:56:12;;;;;;;1.23;0.90;;;9.80;99.90;;;;;;5118431;27;20035;-76
2022/04/05 11:58:41;;;;;;;0.90;0.90;;;9.70;99.90;;;;;;5115327;27;20047;-76
2022/04/05 12:01:09;;;;;;;1.10;1.00;;;9.90;99.90;;;;;;5115342;27;20047;-76
2022/04/05 12:03:53;;;;;;;1.00;0.90;;;10.00;99.90;;;;;;5123385;27;20412;-77
2022/04/05 12:06:29;;;;;;;1.13;1.02;;;10.00;99.90;;;;;;5131731;27;20038;-77
2022/04/05 12:08:57;;;;;;;0.80;0.80;;;10.00;99.90;;;;;;5131127;27;20047;-75
2022/04/05 12:11:24;;;;;;;1.60;1.10;;;10.00;99.90;;;;;;5113682;27;20580;-77
2022/04/05 12:14:09;;;;;;;1.30;1.00;;;10.00;99.90;;;;;;5094797;27;20046;-76
2022/04/05 12:16:48;;;;;;;0.93;0.77;;;10.10;99.90;;;;;;5127477;27;20042;-73
2022/04/05 12:19:34;;;;;;;1.23;1.08;;;10.50;99.90;;;;;;5125620;27;20070;-73
2022/04/05 12:22:16;;;;;;;1.00;0.90;;;10.40;99.90;;;;;;5130236;27;20127;-74
2022/04/05 12:24:50;;;;;;;0.98;0.80;;;10.60;99.90;;;;;;5124917;27;20047;-74
2022/04/05 12:27:18;;;;;;;1.30;1.20;;;10.50;99.90;;;;;;5120024;27;20047;-73
2022/04/05 12:29:44;;;;;;;1.77;1.23;;;10.40;99.90;;;;;;5121789;27;20067;-73
2022/04/05 12:32:11;;;;;;;1.15;0.90;;;10.50;99.90;;;;;;5126632;27;20166;-73
2022/04/05 12:34:38;;;;;;;1.17;1.08;;;10.70;99.90;;;;;;5112290;27;20042;-73
2022/04/05 12:37:15;;;;;;;1.60;1.20;;;10.80;99.90;;;;;;5129603;27;20038;-73
2022/04/05 12:39:50;;;;;;;1.45;1.20;;;10.90;99.90;;;;;;5126766;27;20046;-73
2022/04/05 12:42:17;;;;;;;1.40;1.23;;;10.90;99.90;;;;;;5120920;27;20062;-73
2022/04/05 12:44:48;;;;;;;2.30;1.30;;;10.90;99.90;;;;;;5130642;27;20138;-72
2022/04/05 12:47:15;;;;;;;1.50;1.30;;;10.80;99.90;;;;;;5122703;27;20046;-73
2022/04/05 12:49:50;;;;;;;1.50;1.40;;;10.70;99.90;;;;;;5121430;27;20084;-73
2022/04/05 12:52:24;;;;;;;1.35;1.20;;;10.70;99.90;;;;;;5113255;27;20148;-73
2022/04/05 12:54:59;;;;;;;1.55;1.45;;;10.70;99.90;;;;;;5101949;27;20104;-73
2022/04/05 12:57:26;;;;;;;2.00;1.80;;;10.60;99.90;;;;;;5115932;27;20409;-73
2022/04/05 12:59:54;;;;;;;2.83;1.50;;;10.60;99.90;;;;;;5125125;27;20047;-73
2022/04/05 13:02:25;;;;;;;1.75;1.58;;;10.50;99.90;;;;;;5140405;27;20039;-73